createdAt,value
2018-09-10T00:00:15.081Z,2.30
2018-09-10T00:01:15.079Z,2.80
2018-09-10T00:02:14.959Z,3.80
2018-09-10T00:03:14.962Z,4.30
2018-09-10T00:04:14.959Z,5.30
2018-09-10T00:05:14.840Z,2.80
2018-09-10T00:06:14.838Z,3.50
2018-09-10T00:07:14.719Z,3.00
2018-09-10T00:08:14.722Z,3.40
2018-09-10T00:09:14.718Z,2.70
2018-09-10T00:10:14.597Z,3.10
2018-09-10T00:11:14.606Z,3.60
2018-09-10T00:12:14.596Z,3.50
2018-09-10T00:13:14.478Z,4.60
2018-09-10T00:14:14.475Z,3.30
2018-09-10T00:15:14.476Z,3.10
2018-09-10T00:16:14.358Z,3.20
2018-09-10T00:17:14.359Z,4.50
2018-09-10T00:18:14.356Z,3.20
2018-09-10T00:19:14.236Z,2.70
2018-09-10T00:20:14.234Z,2.20
2018-09-10T00:21:14.192Z,2.40
2018-09-10T00:22:14.116Z,2.30
2018-09-10T00:23:14.114Z,2.50
2018-09-10T00:24:13.992Z,2.30
2018-09-10T00:25:13.996Z,4.00
2018-09-10T00:26:13.992Z,2.50
2018-09-10T00:27:13.873Z,4.40
2018-09-10T00:28:13.872Z,3.70
2018-09-10T00:29:13.881Z,3.00
2018-09-10T00:30:13.753Z,2.70
2018-09-10T00:31:13.757Z,3.20
2018-09-10T00:32:13.764Z,3.30
2018-09-10T00:33:13.632Z,3.50
2018-09-10T00:34:13.630Z,3.00
2018-09-10T00:35:13.592Z,3.10
2018-09-10T00:36:13.511Z,2.30
2018-09-10T00:37:13.517Z,3.90
2018-09-10T00:38:13.393Z,3.80
2018-09-10T00:39:13.468Z,4.20
2018-09-10T00:40:13.393Z,2.20
2018-09-10T00:41:13.269Z,4.70
2018-09-10T00:42:13.269Z,3.90
2018-09-10T00:43:13.270Z,3.70
2018-09-10T00:44:13.149Z,2.90
2018-09-10T00:45:13.150Z,2.80
2018-09-10T00:46:13.147Z,2.40
2018-09-10T00:47:13.027Z,2.40
2018-09-10T00:48:13.027Z,2.30
2018-09-10T00:49:13.027Z,2.60
2018-09-10T00:50:12.908Z,2.10
2018-09-10T00:51:12.908Z,4.80
2018-09-10T00:52:12.787Z,2.50
2018-09-10T00:53:12.791Z,2.90
2018-09-10T00:54:12.787Z,2.20
2018-09-10T00:55:12.674Z,2.40
2018-09-10T00:56:12.670Z,4.20
2018-09-10T00:57:12.671Z,3.50
2018-09-10T00:58:12.551Z,3.30
2018-09-10T00:59:12.545Z,3.10
2018-09-10T01:00:12.548Z,2.50
2018-09-10T01:01:12.437Z,2.90
2018-09-10T01:02:12.433Z,2.20
2018-09-10T01:03:12.429Z,2.50
2018-09-10T01:04:12.305Z,2.30
2018-09-10T01:05:12.304Z,3.80
2018-09-10T01:06:12.261Z,2.80
2018-09-10T01:07:12.185Z,2.50
2018-09-10T01:08:12.185Z,3.10
2018-09-10T01:09:12.064Z,3.40
2018-09-10T01:10:12.063Z,3.60
2018-09-10T01:11:12.064Z,3.80
2018-09-10T01:12:11.944Z,3.70
2018-09-10T01:13:11.943Z,2.60
2018-09-10T01:14:11.948Z,3.00
2018-09-10T01:15:11.824Z,2.20
2018-09-10T01:16:11.823Z,2.20
2018-09-10T01:17:11.824Z,2.70
2018-09-10T01:18:11.702Z,3.00
2018-09-10T01:19:11.703Z,2.70
2018-09-10T01:20:11.701Z,3.60
2018-09-10T01:21:11.585Z,3.00
2018-09-10T01:22:11.582Z,2.60
2018-09-10T01:23:11.459Z,2.30
2018-09-10T01:24:11.460Z,3.40
2018-09-10T01:25:11.460Z,2.60
2018-09-10T01:26:11.341Z,2.60
2018-09-10T01:27:11.339Z,2.00
2018-09-10T01:28:11.340Z,2.80
2018-09-10T01:29:11.221Z,2.50
2018-09-10T01:30:11.221Z,4.00
2018-09-10T01:31:11.219Z,4.60
2018-09-10T01:32:11.101Z,2.80
2018-09-10T01:33:11.101Z,3.70
2018-09-10T01:34:11.098Z,2.40
2018-09-10T01:35:10.982Z,3.40
2018-09-10T01:36:10.988Z,3.10
2018-09-10T01:37:10.860Z,2.30
2018-09-10T01:38:10.860Z,3.20
2018-09-10T01:39:10.860Z,2.30
2018-09-10T01:40:10.739Z,2.30
2018-09-10T01:41:10.736Z,3.60
2018-09-10T01:42:10.739Z,3.80
2018-09-10T01:43:10.617Z,2.10
2018-09-10T01:44:10.614Z,2.50
2018-09-10T01:45:10.615Z,3.70
2018-09-10T01:46:10.495Z,2.60
2018-09-10T01:47:10.495Z,3.30
2018-09-10T01:48:10.496Z,3.40
2018-09-10T01:49:10.373Z,2.30
2018-09-10T01:50:10.376Z,4.60
2018-09-10T01:51:10.333Z,4.40
2018-09-10T01:52:10.255Z,2.70
2018-09-10T01:53:10.259Z,3.60
2018-09-10T01:54:10.133Z,3.40
2018-09-10T01:55:10.133Z,4.40
2018-09-10T01:56:10.132Z,3.30
2018-09-10T01:57:10.015Z,5.30
2018-09-10T01:58:10.013Z,3.80
2018-09-10T01:59:10.019Z,5.90
2018-09-10T02:00:09.892Z,3.30
2018-09-10T02:01:09.896Z,3.10
2018-09-10T02:02:09.897Z,3.70
2018-09-10T02:03:09.776Z,4.00
2018-09-10T02:04:09.772Z,5.50
2018-09-10T02:05:09.731Z,2.90
2018-09-10T02:06:09.652Z,2.60
2018-09-10T02:07:09.649Z,3.10
2018-09-10T02:08:09.535Z,4.50
2018-09-10T02:09:09.533Z,2.70
2018-09-10T02:10:09.531Z,3.20
2018-09-10T02:11:09.411Z,3.00
2018-09-10T02:12:09.408Z,2.60
2018-09-10T02:13:09.411Z,3.80
2018-09-10T02:14:09.294Z,2.80
2018-09-10T02:15:09.288Z,3.50
2018-09-10T02:16:09.288Z,2.70
2018-09-10T02:17:09.284Z,2.90
2018-09-10T02:18:09.167Z,2.80
2018-09-10T02:19:09.054Z,4.00
2018-09-10T02:20:09.089Z,4.00
2018-09-10T02:21:09.046Z,3.50
2018-09-10T02:22:08.928Z,3.10
2018-09-10T02:23:08.931Z,2.60
2018-09-10T02:24:08.925Z,3.30
2018-09-10T02:25:08.805Z,5.80
2018-09-10T02:26:08.807Z,3.40
2018-09-10T02:27:08.805Z,2.90
2018-09-10T02:28:08.689Z,3.40
2018-09-10T02:29:08.747Z,4.30
2018-09-10T02:30:08.689Z,2.70
2018-09-10T02:31:08.567Z,4.30
2018-09-10T02:32:08.569Z,3.50
2018-09-10T02:33:08.450Z,3.80
2018-09-10T02:34:08.446Z,2.60
2018-09-10T02:35:08.445Z,2.90
2018-09-10T02:36:08.324Z,4.60
2018-09-10T02:37:08.324Z,2.60
2018-09-10T02:38:08.325Z,3.60
2018-09-10T02:39:08.204Z,3.80
2018-09-10T02:40:08.202Z,2.40
2018-09-10T02:41:08.205Z,3.00
2018-09-10T02:42:08.080Z,2.90
2018-09-10T02:43:08.088Z,3.80
2018-09-10T02:44:08.084Z,7.30
2018-09-10T02:45:08.038Z,3.00
2018-09-10T02:46:07.966Z,2.90
2018-09-10T02:47:07.852Z,4.50
2018-09-10T02:48:07.840Z,3.30
2018-09-10T02:49:07.839Z,2.90
2018-09-10T02:50:07.724Z,2.70
2018-09-10T02:51:07.722Z,3.90
2018-09-10T02:52:07.721Z,2.70
2018-09-10T02:53:07.603Z,3.80
2018-09-10T02:54:07.602Z,3.00
2018-09-10T02:55:07.665Z,3.40
2018-09-10T02:56:07.479Z,3.70
2018-09-10T02:57:07.482Z,3.00
2018-09-10T02:58:07.439Z,3.50
2018-09-10T02:59:07.361Z,3.70
2018-09-10T03:00:07.358Z,3.90
2018-09-10T03:01:07.241Z,4.60
2018-09-10T03:02:07.247Z,3.50
2018-09-10T03:03:07.240Z,2.90
2018-09-10T03:04:07.118Z,3.90
2018-09-10T03:05:07.123Z,3.90
2018-09-10T03:06:07.119Z,2.80
2018-09-10T03:07:07.001Z,6.80
2018-09-10T03:08:06.999Z,2.60
2018-09-10T03:09:06.999Z,3.00
2018-09-10T03:10:06.881Z,3.20
2018-09-10T03:11:06.876Z,3.60
2018-09-10T03:12:06.757Z,4.10
2018-09-10T03:13:06.755Z,3.00
2018-09-10T03:14:06.754Z,3.30
2018-09-10T03:15:06.633Z,2.90
2018-09-10T03:16:06.636Z,3.60
2018-09-10T03:17:06.638Z,3.70
2018-09-10T03:18:06.569Z,4.50
2018-09-10T03:19:06.515Z,3.20
2018-09-10T03:20:06.514Z,3.20
2018-09-10T03:21:06.395Z,3.40
2018-09-10T03:22:06.399Z,3.90
2018-09-10T03:23:06.272Z,4.20
2018-09-10T03:24:06.361Z,4.30
2018-09-10T03:25:06.273Z,3.80
2018-09-10T03:26:06.155Z,3.50
2018-09-10T03:27:06.151Z,3.10
2018-09-10T03:28:06.152Z,3.50
2018-09-10T03:29:06.031Z,4.80
2018-09-10T03:30:06.043Z,3.80
2018-09-10T03:31:06.032Z,4.10
2018-09-10T03:32:05.912Z,3.50
2018-09-10T03:33:05.910Z,4.30
2018-09-10T03:34:05.911Z,4.20
2018-09-10T03:35:05.789Z,3.30
2018-09-10T03:36:05.792Z,4.20
2018-09-10T03:37:05.792Z,3.80
2018-09-10T03:38:05.675Z,5.40
2018-09-10T03:39:05.672Z,3.70
2018-09-10T03:40:05.548Z,5.50
2018-09-10T03:41:05.551Z,4.50
2018-09-10T03:42:05.552Z,6.00
2018-09-10T03:43:05.428Z,4.20
2018-09-10T03:44:05.431Z,5.00
2018-09-10T03:45:05.428Z,4.40
2018-09-10T03:46:05.306Z,4.00
2018-09-10T03:47:05.307Z,3.30
2018-09-10T03:48:05.191Z,2.80
2018-09-10T03:49:05.186Z,4.80
2018-09-10T03:50:05.186Z,3.10
2018-09-10T03:51:05.071Z,4.30
2018-09-10T03:52:05.066Z,3.80
2018-09-10T03:53:05.068Z,4.40
2018-09-10T03:54:04.946Z,5.00
2018-09-10T03:55:04.947Z,4.20
2018-09-10T03:56:04.943Z,4.20
2018-09-10T03:57:04.827Z,3.80
2018-09-10T03:58:04.825Z,3.20
2018-09-10T03:59:04.824Z,3.50
2018-09-10T04:00:04.705Z,4.90
2018-09-10T04:01:04.706Z,4.20
2018-09-10T04:02:04.586Z,4.40
2018-09-10T04:03:04.585Z,4.10
2018-09-10T04:04:04.584Z,3.90
2018-09-10T04:05:04.466Z,3.50
2018-09-10T04:06:04.462Z,5.20
2018-09-10T04:07:04.461Z,4.30
2018-09-10T04:08:04.342Z,4.30
2018-09-10T04:09:04.342Z,5.00
2018-09-10T04:10:04.345Z,5.10
2018-09-10T04:11:04.225Z,3.60
2018-09-10T04:12:04.222Z,3.70
2018-09-10T04:13:04.181Z,6.60
2018-09-10T04:14:04.101Z,4.20
2018-09-10T04:15:04.106Z,4.70
2018-09-10T04:16:03.982Z,4.40
2018-09-10T04:17:04.034Z,6.40
2018-09-10T04:18:03.980Z,5.20
2018-09-10T04:19:03.864Z,4.70
2018-09-10T04:20:03.858Z,5.20
2018-09-10T04:21:03.861Z,5.00
2018-09-10T04:22:03.739Z,5.90
2018-09-10T04:23:03.740Z,4.80
2018-09-10T04:24:03.744Z,4.80
2018-09-10T04:25:03.616Z,4.00
2018-09-10T04:26:03.726Z,3.80
2018-09-10T04:27:03.501Z,4.20
2018-09-10T04:28:03.509Z,4.80
2018-09-10T04:29:03.503Z,5.20
2018-09-10T04:30:03.378Z,6.70
2018-09-10T04:31:03.452Z,5.30
2018-09-10T04:32:03.379Z,7.30
2018-09-10T04:33:03.265Z,4.70
2018-09-10T04:34:03.261Z,5.50
2018-09-10T04:35:03.259Z,6.30
2018-09-10T04:36:03.195Z,5.60
2018-09-10T04:37:03.134Z,4.90
2018-09-10T04:38:03.135Z,5.40
2018-09-10T04:39:03.018Z,7.30
2018-09-10T04:40:03.016Z,6.00
2018-09-10T04:41:02.896Z,6.20
2018-09-10T04:42:02.915Z,5.60
2018-09-10T04:43:02.893Z,9.40
2018-09-10T04:44:02.774Z,4.30
2018-09-10T04:45:02.775Z,5.20
2018-09-10T04:46:02.774Z,6.30
2018-09-10T04:47:02.655Z,5.80
2018-09-10T04:48:02.653Z,5.80
2018-09-10T04:49:02.660Z,5.90
2018-09-10T04:50:02.532Z,6.20
2018-09-10T04:51:02.546Z,6.70
2018-09-10T04:52:02.545Z,6.50
2018-09-10T04:53:02.412Z,6.00
2018-09-10T04:54:02.413Z,5.70
2018-09-10T04:55:02.293Z,6.30
2018-09-10T04:56:02.293Z,6.40
2018-09-10T04:57:02.289Z,5.60
2018-09-10T04:58:02.224Z,6.80
2018-09-10T04:59:02.170Z,6.90
2018-09-10T05:00:02.172Z,6.90
2018-09-10T05:01:02.053Z,7.50
2018-09-10T05:02:02.052Z,5.50
2018-09-10T05:03:02.050Z,8.60
2018-09-10T05:04:01.927Z,5.70
2018-09-10T05:05:01.935Z,5.70
2018-09-10T05:06:01.931Z,6.80
2018-09-10T05:07:01.824Z,6.50
2018-09-10T05:08:01.810Z,8.60
2018-09-10T05:09:01.688Z,6.70
2018-09-10T05:10:01.715Z,5.40
2018-09-10T05:11:01.686Z,7.10
2018-09-10T05:12:01.567Z,5.40
2018-09-10T05:13:01.566Z,7.90
2018-09-10T05:14:01.566Z,8.00
2018-09-10T05:15:01.449Z,7.60
2018-09-10T05:16:01.446Z,6.10
2018-09-10T05:17:01.444Z,8.00
2018-09-10T05:18:01.327Z,6.40
2018-09-10T05:19:01.325Z,5.60
2018-09-10T05:20:01.209Z,5.30
2018-09-10T05:21:01.207Z,8.60
2018-09-10T05:22:01.335Z,6.80
2018-09-10T05:23:01.086Z,8.20
2018-09-10T05:24:01.085Z,9.60
2018-09-10T05:25:01.084Z,7.80
2018-09-10T05:26:00.970Z,7.90
2018-09-10T05:27:00.970Z,9.90
2018-09-10T05:28:00.982Z,8.90
2018-09-10T05:29:00.845Z,8.80
2018-09-10T05:30:00.845Z,9.40
2018-09-10T05:31:00.844Z,10.20
2018-09-10T05:32:00.724Z,8.50
2018-09-10T05:33:00.721Z,11.20
2018-09-10T05:34:00.603Z,10.00
2018-09-10T05:35:00.601Z,8.10
2018-09-10T05:36:00.602Z,9.20
2018-09-10T05:37:00.486Z,9.20
2018-09-10T05:38:00.484Z,9.50
2018-09-10T05:39:00.485Z,13.60
2018-09-10T05:40:00.361Z,12.90
2018-09-10T05:41:00.363Z,11.00
2018-09-10T05:42:00.388Z,10.10
2018-09-10T05:43:00.241Z,9.60
2018-09-10T05:44:00.245Z,11.50
2018-09-10T05:45:00.242Z,10.90
2018-09-10T05:46:00.119Z,11.40
2018-09-10T05:47:00.122Z,10.80
2018-09-10T05:48:00.001Z,11.80
2018-09-10T05:48:59.997Z,12.10
2018-09-10T05:49:59.999Z,11.30
2018-09-10T05:50:59.879Z,9.90
2018-09-10T05:51:59.878Z,9.20
2018-09-10T05:52:59.877Z,9.50
2018-09-10T05:53:59.756Z,10.40
2018-09-10T05:54:59.759Z,8.70
2018-09-10T05:55:59.759Z,11.20
2018-09-10T05:56:59.639Z,8.80
2018-09-10T05:57:59.639Z,10.10
2018-09-10T05:58:59.596Z,11.60
2018-09-10T05:59:59.516Z,13.60
2018-09-10T06:00:59.518Z,14.20
2018-09-10T06:01:59.394Z,12.50
2018-09-10T06:02:59.395Z,12.80
2018-09-10T06:03:59.398Z,12.80
2018-09-10T06:04:59.278Z,12.10
2018-09-10T06:05:59.277Z,14.30
2018-09-10T06:06:59.273Z,13.20
2018-09-10T06:07:59.154Z,12.50
2018-09-10T06:08:59.156Z,14.00
2018-09-10T06:09:59.153Z,15.00
2018-09-10T06:10:59.044Z,17.00
2018-09-10T06:11:59.034Z,14.50
2018-09-10T06:12:58.991Z,13.80
2018-09-10T06:13:58.916Z,19.30
2018-09-10T06:14:58.920Z,16.80
2018-09-10T06:15:58.793Z,17.40
2018-09-10T06:16:58.792Z,15.90
2018-09-10T06:17:58.793Z,18.30
2018-09-10T06:18:58.672Z,17.20
2018-09-10T06:19:58.672Z,17.80
2018-09-10T06:20:58.675Z,17.00
2018-09-10T06:21:58.553Z,15.60
2018-09-10T06:22:58.552Z,15.70
2018-09-10T06:23:58.554Z,14.70
2018-09-10T06:24:58.430Z,19.50
2018-09-10T06:25:58.439Z,16.00
2018-09-10T06:26:58.425Z,15.80
2018-09-10T06:27:58.310Z,18.60
2018-09-10T06:28:58.312Z,17.60
2018-09-10T06:29:58.189Z,19.70
2018-09-10T06:30:58.191Z,19.60
2018-09-10T06:31:58.192Z,21.10
2018-09-10T06:32:58.073Z,21.40
2018-09-10T06:33:58.101Z,20.50
2018-09-10T06:34:58.067Z,21.40
2018-09-10T06:35:57.949Z,20.70
2018-09-10T06:36:57.960Z,23.20
2018-09-10T06:37:57.947Z,19.80
2018-09-10T06:38:57.830Z,22.20
2018-09-10T06:39:57.830Z,23.20
2018-09-10T06:40:57.827Z,22.60
2018-09-10T06:41:57.705Z,20.20
2018-09-10T06:42:57.705Z,22.30
2018-09-10T06:43:57.590Z,21.70
2018-09-10T06:44:57.588Z,22.90
2018-09-10T06:45:57.586Z,23.60
2018-09-10T06:46:57.464Z,20.30
2018-09-10T06:47:57.468Z,23.50
2018-09-10T06:48:57.467Z,19.80
2018-09-10T06:49:57.351Z,20.10
2018-09-10T06:50:57.346Z,20.40
2018-09-10T06:51:57.345Z,22.40
2018-09-10T06:52:57.233Z,21.70
2018-09-10T06:53:57.228Z,21.80
2018-09-10T06:54:57.223Z,22.00
2018-09-10T06:55:57.102Z,26.80
2018-09-10T06:56:57.104Z,22.70
2018-09-10T06:57:57.063Z,23.00
2018-09-10T06:58:56.983Z,21.20
2018-09-10T06:59:56.982Z,25.20
2018-09-10T07:00:56.868Z,22.60
2018-09-10T07:01:56.864Z,21.80
2018-09-10T07:02:56.862Z,23.80
2018-09-10T07:03:56.746Z,24.30
2018-09-10T07:04:56.740Z,27.40
2018-09-10T07:05:56.791Z,27.50
2018-09-10T07:06:56.621Z,25.50
2018-09-10T07:07:56.628Z,24.40
2018-09-10T07:08:56.626Z,26.60
2018-09-10T07:09:56.500Z,25.30
2018-09-10T07:10:56.497Z,29.10
2018-09-10T07:11:56.498Z,25.40
2018-09-10T07:12:56.382Z,25.00
2018-09-10T07:13:56.377Z,26.70
2018-09-10T07:14:56.336Z,23.30
2018-09-10T07:15:56.258Z,23.20
2018-09-10T07:16:56.259Z,28.60
2018-09-10T07:17:56.139Z,27.40
2018-09-10T07:18:56.176Z,24.80
2018-09-10T07:19:56.139Z,22.40
2018-09-10T07:20:56.017Z,24.90
2018-09-10T07:21:56.018Z,22.20
2018-09-10T07:22:56.017Z,21.50
2018-09-10T07:23:55.898Z,27.90
2018-09-10T07:24:55.896Z,24.90
2018-09-10T07:25:55.897Z,25.40
2018-09-10T07:26:55.775Z,26.70
2018-09-10T07:27:55.775Z,24.40
2018-09-10T07:28:55.777Z,22.40
2018-09-10T07:29:55.656Z,21.90
2018-09-10T07:30:55.668Z,23.70
2018-09-10T07:31:55.659Z,22.00
2018-09-10T07:32:55.612Z,22.50
2018-09-10T07:33:55.539Z,22.10
2018-09-10T07:34:55.417Z,22.40
2018-09-10T07:35:55.412Z,23.30
2018-09-10T07:36:55.416Z,22.30
2018-09-10T07:37:55.294Z,26.00
2018-09-10T07:38:55.295Z,22.90
2018-09-10T07:39:55.291Z,27.20
2018-09-10T07:40:55.172Z,20.20
2018-09-10T07:41:55.170Z,25.50
2018-09-10T07:42:55.173Z,24.60
2018-09-10T07:43:55.175Z,24.40
2018-09-10T07:44:55.052Z,23.50
2018-09-10T07:45:55.050Z,26.10
2018-09-10T07:46:54.933Z,21.90
2018-09-10T07:47:54.932Z,25.30
2018-09-10T07:48:54.973Z,21.80
2018-09-10T07:49:54.809Z,21.50
2018-09-10T07:50:54.808Z,22.90
2018-09-10T07:51:54.809Z,23.90
2018-09-10T07:52:54.690Z,24.90
2018-09-10T07:53:54.687Z,23.60
2018-09-10T07:54:54.571Z,22.50
2018-09-10T07:55:54.581Z,23.50
2018-09-10T07:56:54.568Z,23.30
2018-09-10T07:57:54.448Z,23.50
2018-09-10T07:58:54.447Z,20.60
2018-09-10T07:59:54.448Z,23.80
2018-09-10T08:00:54.330Z,20.70
2018-09-10T08:01:54.327Z,20.40
2018-09-10T08:02:54.345Z,22.60
2018-09-10T08:03:54.206Z,20.50
2018-09-10T08:04:54.207Z,25.40
2018-09-10T08:05:54.208Z,21.90
2018-09-10T08:06:54.091Z,21.20
2018-09-10T08:07:54.098Z,25.00
2018-09-10T08:08:54.084Z,26.40
2018-09-10T08:09:53.966Z,23.80
2018-09-10T08:10:53.964Z,23.90
2018-09-10T08:11:53.974Z,22.20
2018-09-10T08:12:53.843Z,21.70
2018-09-10T08:13:53.843Z,23.90
2018-09-10T08:14:53.843Z,22.90
2018-09-10T08:15:53.725Z,22.10
2018-09-10T08:16:53.732Z,20.30
2018-09-10T08:17:53.682Z,18.40
2018-09-10T08:18:53.601Z,23.40
2018-09-10T08:19:53.612Z,25.60
2018-09-10T08:20:53.481Z,24.10
2018-09-10T08:21:53.481Z,21.40
2018-09-10T08:22:53.488Z,24.90
2018-09-10T08:23:53.366Z,23.40
2018-09-10T08:24:53.362Z,20.70
2018-09-10T08:25:53.363Z,20.10
2018-09-10T08:26:53.241Z,20.90
2018-09-10T08:27:53.243Z,20.20
2018-09-10T08:28:53.242Z,27.50
2018-09-10T08:29:53.118Z,20.70
2018-09-10T08:30:53.123Z,20.00
2018-09-10T08:31:53.129Z,21.60
2018-09-10T08:32:52.998Z,24.90
2018-09-10T08:33:52.999Z,24.50
2018-09-10T08:34:52.998Z,22.60
2018-09-10T08:35:52.878Z,21.20
2018-09-10T08:37:52.879Z,24.00
2018-09-10T08:38:52.759Z,21.90
2018-09-10T08:39:52.757Z,21.80
2018-09-10T08:40:52.759Z,25.50
2018-09-10T08:41:52.637Z,19.90
2018-09-10T08:42:52.725Z,22.80
2018-09-10T08:43:52.636Z,19.60
2018-09-10T08:44:52.516Z,22.40
2018-09-10T08:45:52.516Z,23.50
2018-09-10T08:46:52.519Z,25.80
2018-09-10T08:47:52.396Z,20.70
2018-09-10T08:48:52.397Z,25.90
2018-09-10T08:49:52.400Z,27.60
2018-09-10T08:50:52.276Z,24.50
2018-09-10T08:51:52.278Z,24.00
2018-09-10T08:52:52.271Z,25.70
2018-09-10T08:53:52.168Z,22.10
2018-09-10T08:54:52.456Z,25.50
2018-09-10T08:55:52.515Z,22.40
2018-09-10T08:56:52.033Z,26.20
2018-09-10T08:57:52.034Z,24.50
2018-09-10T08:58:51.916Z,23.70
2018-09-10T08:59:51.914Z,25.70
2018-09-10T09:00:51.916Z,23.20
2018-09-10T09:01:51.916Z,21.80
2018-09-10T09:02:51.796Z,23.70
2018-09-10T09:03:51.799Z,22.90
2018-09-10T09:04:51.682Z,24.20
2018-09-10T09:05:51.738Z,24.30
2018-09-10T09:06:51.683Z,23.00
2018-09-10T09:07:51.605Z,20.80
2018-09-10T09:08:51.557Z,20.00
2018-09-10T09:09:51.553Z,21.80
2018-09-10T09:10:51.432Z,19.80
2018-09-10T09:11:51.432Z,24.00
2018-09-10T09:12:51.430Z,22.20
2018-09-10T09:13:51.310Z,21.80
2018-09-10T09:14:51.310Z,25.20
2018-09-10T09:15:51.311Z,20.70
2018-09-10T09:16:51.191Z,24.00
2018-09-10T09:17:51.193Z,22.60
2018-09-10T09:18:51.192Z,21.40
2018-09-10T09:19:51.071Z,21.30
2018-09-10T09:20:51.078Z,22.00
2018-09-10T09:21:51.069Z,21.70
2018-09-10T09:22:50.950Z,20.70
2018-09-10T09:23:50.951Z,20.80
2018-09-10T09:24:50.946Z,19.80
2018-09-10T09:25:50.831Z,19.10
2018-09-10T09:26:50.838Z,19.90
2018-09-10T09:27:50.827Z,21.30
2018-09-10T09:28:50.834Z,21.90
2018-09-10T09:30:50.710Z,22.70
2018-09-10T09:31:50.708Z,23.40
2018-09-10T09:32:50.703Z,19.50
2018-09-10T09:33:50.712Z,17.40
2018-09-10T09:34:50.466Z,21.60
2018-09-10T09:35:50.471Z,20.10
2018-09-10T09:36:50.471Z,24.80
2018-09-10T09:37:50.347Z,25.30
2018-09-10T09:38:50.347Z,22.30
2018-09-10T09:39:50.345Z,23.50
2018-09-10T09:40:50.227Z,21.70
2018-09-10T09:41:50.225Z,21.70
2018-09-10T09:42:50.229Z,22.30
2018-09-10T09:43:50.104Z,19.20
2018-09-10T09:44:50.104Z,20.90
2018-09-10T09:45:50.105Z,22.10
2018-09-10T09:46:49.984Z,19.20
2018-09-10T09:47:49.982Z,19.50
2018-09-10T09:48:49.988Z,16.80
2018-09-10T09:49:49.866Z,17.10
2018-09-10T09:50:49.906Z,16.70
2018-09-10T09:51:49.863Z,18.80
2018-09-10T09:52:49.744Z,15.80
2018-09-10T09:53:49.743Z,17.70
2018-09-10T09:54:49.746Z,18.10
2018-09-10T09:55:49.625Z,22.40
2018-09-10T09:56:49.620Z,19.00
2018-09-10T09:57:49.623Z,18.20
2018-09-10T09:58:49.499Z,21.60
2018-09-10T09:59:49.499Z,15.60
2018-09-10T10:00:49.499Z,16.50
2018-09-10T10:01:49.379Z,17.60
2018-09-10T10:02:49.381Z,18.00
2018-09-10T10:03:49.378Z,19.40
2018-09-10T10:04:49.264Z,17.10
2018-09-10T10:05:49.274Z,16.90
2018-09-10T10:06:49.259Z,15.60
2018-09-10T10:07:49.253Z,16.00
2018-09-10T10:08:49.146Z,16.20
2018-09-10T10:09:49.141Z,17.60
2018-09-10T10:10:49.138Z,17.90
2018-09-10T10:11:49.183Z,17.50
2018-09-10T10:12:49.017Z,17.70
2018-09-10T10:13:49.015Z,15.70
2018-09-10T10:14:48.907Z,16.40
2018-09-10T10:15:48.894Z,17.10
2018-09-10T10:16:48.899Z,15.90
2018-09-10T10:17:48.780Z,16.60
2018-09-10T10:18:48.780Z,17.70
2018-09-10T10:19:48.776Z,15.60
2018-09-10T10:20:48.659Z,16.30
2018-09-10T10:21:48.655Z,15.70
2018-09-10T10:22:48.654Z,14.60
2018-09-10T10:23:48.537Z,17.90
2018-09-10T10:24:48.536Z,17.60
2018-09-10T10:25:48.537Z,17.10
2018-09-10T10:26:48.415Z,16.30
2018-09-10T10:27:48.416Z,15.00
2018-09-10T10:28:48.427Z,15.60
2018-09-10T10:29:48.292Z,15.20
2018-09-10T10:30:48.292Z,16.80
2018-09-10T10:31:48.192Z,15.40
2018-09-10T10:32:48.152Z,14.50
2018-09-10T10:33:48.111Z,16.40
2018-09-10T10:34:48.074Z,14.10
2018-09-10T10:35:48.045Z,14.30
2018-09-10T10:36:47.992Z,14.30
2018-09-10T10:37:47.953Z,14.70
2018-09-10T10:38:47.916Z,13.70
2018-09-10T10:39:47.872Z,13.30
2018-09-10T10:40:47.837Z,10.30
2018-09-10T10:41:47.796Z,12.30
2018-09-10T10:42:47.758Z,11.90
2018-09-10T10:43:47.713Z,12.10
2018-09-10T10:44:47.680Z,10.90
2018-09-10T10:45:47.639Z,10.90
2018-09-10T10:46:47.595Z,9.60
2018-09-10T10:47:47.556Z,9.60
2018-09-10T10:48:47.524Z,9.40
2018-09-10T10:49:47.477Z,12.40
2018-09-10T10:50:47.441Z,9.30
2018-09-10T10:51:47.397Z,8.40
2018-09-10T10:52:47.361Z,8.80
2018-09-10T10:53:47.392Z,8.80
2018-09-10T10:54:47.278Z,9.50
2018-09-10T10:55:47.242Z,12.20
2018-09-10T10:56:47.204Z,8.20
2018-09-10T10:57:47.170Z,8.50
2018-09-10T10:58:47.117Z,10.90
2018-09-10T10:59:47.080Z,9.10
2018-09-10T11:00:47.044Z,10.60
2018-09-10T11:01:47.001Z,12.40
2018-09-10T11:02:46.962Z,7.10
2018-09-10T11:03:46.983Z,11.20
2018-09-10T11:04:46.883Z,9.80
2018-09-10T11:05:46.847Z,9.80
2018-09-10T11:06:46.804Z,7.90
2018-09-10T11:07:46.764Z,10.20
2018-09-10T11:08:46.725Z,9.90
2018-09-10T11:09:46.684Z,6.90
2018-09-10T11:10:46.650Z,9.00
2018-09-10T11:11:46.605Z,6.10
2018-09-10T11:12:46.566Z,7.90
2018-09-10T11:13:46.527Z,6.00
2018-09-10T11:14:46.485Z,7.30
2018-09-10T11:15:46.449Z,6.90
2018-09-10T11:16:46.528Z,8.90
2018-09-10T11:17:46.371Z,4.80
2018-09-10T11:18:46.334Z,6.40
2018-09-10T11:19:46.289Z,8.70
2018-09-10T11:20:46.262Z,9.30
2018-09-10T11:21:46.226Z,8.10
2018-09-10T11:22:46.175Z,9.40
2018-09-10T11:23:46.134Z,8.20
2018-09-10T11:24:46.096Z,10.20
2018-09-10T11:25:46.059Z,8.00
2018-09-10T11:26:46.018Z,6.30
2018-09-10T11:27:45.980Z,10.10
2018-09-10T11:28:45.934Z,9.70
2018-09-10T11:29:45.894Z,9.40
2018-09-10T11:30:45.854Z,9.60
2018-09-10T11:31:45.821Z,7.00
2018-09-10T11:32:45.777Z,9.70
2018-09-10T11:33:45.744Z,7.90
2018-09-10T11:34:45.795Z,7.80
2018-09-10T11:35:45.657Z,8.80
2018-09-10T11:36:45.624Z,5.10
2018-09-10T11:37:45.586Z,6.10
2018-09-10T11:38:45.546Z,7.90
2018-09-10T11:39:45.503Z,7.10
2018-09-10T11:40:45.461Z,9.20
2018-09-10T11:41:45.421Z,6.80
2018-09-10T11:42:45.383Z,6.70
2018-09-10T11:43:45.344Z,6.20
2018-09-10T11:44:45.310Z,8.60
2018-09-10T11:45:45.267Z,6.60
2018-09-10T11:46:45.225Z,5.60
2018-09-10T11:47:45.189Z,6.80
2018-09-10T11:48:45.147Z,6.50
2018-09-10T11:49:45.108Z,8.90
2018-09-10T11:50:45.068Z,7.00
2018-09-10T11:51:45.034Z,6.70
2018-09-10T11:52:44.994Z,7.30
2018-09-10T11:53:44.953Z,6.10
2018-09-10T11:54:44.913Z,6.80
2018-09-10T11:55:44.912Z,6.40
2018-09-10T11:56:44.839Z,6.50
2018-09-10T11:57:44.799Z,7.70
2018-09-10T11:58:44.766Z,7.50
2018-09-10T11:59:44.716Z,9.10
2018-09-10T12:00:44.676Z,5.20
2018-09-10T12:01:44.684Z,5.50
2018-09-10T12:02:44.603Z,4.80
2018-09-10T12:03:44.563Z,5.20
2018-09-10T12:04:44.521Z,5.70
2018-09-10T12:05:44.482Z,5.70
2018-09-10T12:06:44.449Z,6.90
2018-09-10T12:07:44.401Z,8.80
2018-09-10T12:08:44.364Z,5.80
2018-09-10T12:09:44.323Z,5.90
2018-09-10T12:10:44.285Z,4.40
2018-09-10T12:11:44.247Z,6.90
2018-09-10T12:12:44.208Z,7.50
2018-09-10T12:13:44.245Z,6.30
2018-09-10T12:14:44.128Z,5.90
2018-09-10T12:15:44.089Z,7.10
2018-09-10T12:16:44.070Z,5.90
2018-09-10T12:17:44.008Z,7.90
2018-09-10T12:18:43.967Z,7.30
2018-09-10T12:19:43.932Z,8.20
2018-09-10T12:20:43.892Z,8.70
2018-09-10T12:21:43.849Z,7.20
2018-09-10T12:22:43.817Z,9.10
2018-09-10T12:23:43.801Z,6.70
2018-09-10T12:24:43.730Z,6.70
2018-09-10T12:25:43.695Z,6.60
2018-09-10T12:26:43.759Z,6.10
2018-09-10T12:27:43.619Z,5.70
2018-09-10T12:28:43.572Z,8.20
2018-09-10T12:29:43.533Z,7.30
2018-09-10T12:30:43.523Z,8.90
2018-09-10T12:31:43.457Z,4.90
2018-09-10T12:32:43.413Z,7.80
2018-09-10T12:33:43.378Z,8.10
2018-09-10T12:34:43.335Z,6.70
2018-09-10T12:35:43.292Z,6.70
2018-09-10T12:36:43.253Z,6.80
2018-09-10T12:37:43.214Z,7.40
2018-09-10T12:38:43.178Z,7.70
2018-09-10T12:39:43.222Z,5.10
2018-09-10T12:40:43.094Z,6.40
2018-09-10T12:41:43.055Z,6.90
2018-09-10T12:42:43.018Z,7.60
2018-09-10T12:43:42.988Z,8.00
2018-09-10T12:44:42.940Z,6.80
2018-09-10T12:45:42.913Z,8.30
2018-09-10T12:46:42.864Z,8.30
2018-09-10T12:47:42.930Z,6.80
2018-09-10T12:48:42.779Z,8.10
2018-09-10T12:49:42.745Z,7.70
2018-09-10T12:50:42.736Z,7.30
2018-09-10T12:51:42.659Z,8.30
2018-09-10T12:52:42.618Z,5.70
2018-09-10T12:53:42.576Z,6.20
2018-09-10T12:54:42.540Z,7.00
2018-09-10T12:55:42.502Z,6.20
2018-09-10T12:56:42.462Z,6.80
2018-09-10T12:57:42.418Z,6.50
2018-09-10T12:58:42.421Z,6.00
2018-09-10T12:59:42.339Z,6.40
2018-09-10T13:00:42.307Z,7.00
2018-09-10T13:01:42.260Z,7.90
2018-09-10T13:02:42.217Z,10.10
2018-09-10T13:03:42.181Z,6.50
2018-09-10T13:04:42.141Z,8.40
2018-09-10T13:05:42.103Z,7.00
2018-09-10T13:06:42.059Z,6.60
2018-09-10T13:07:42.025Z,6.00
2018-09-10T13:08:41.983Z,6.00
2018-09-10T13:09:41.942Z,6.90